Pagrindinis puslapis
METAR-TAF:

METAR-TAF

Oro uostai :

Keiptaunas, Pietų Afrikos Respublika

platuma: 33-59S, ilguma: 018-36E, Aukštis: 42 m

Dabartinis oras

Ataskaita buvo paskelbta 15 minutes, ne 06:00 UTC
Vėjas 9 kt iš Pietų/Pietvakarių
Temperatūra 21°C
Drėgmė 78%
Slėgis 1010 hPa
Matomumas 10 km arba daugiau
Mažai debesys ne aukštis 800 ft

METAR: FACT 060600Z 21009KT 9999 FEW008 21/17 Q1010 NOSIG

Laikas: 08:15 (06:15 UTC)

Prognozė

Ataskaita buvo paskelbta 2 valandos ir 15 minutes, ne 04:00 UTC
Prognozė galioja nuo 06 metu 06 UTC su 07 metu 12 UTC
Vėjas 10 kt iš Pietų
Matomumas 10 km arba daugiau
nėra debesų žemiau 1500 m ir nėra kamuolinių lietaus debesų
Nuo 06 metu 1500 UTC
Vėjas 15 kt iš Pietų
Matomumas 10 km arba daugiau
Išsisklaidę debesys ne aukštis 800 ft
Tikimybė 30% :
Laikinai
nuo 06 metu 18 UTC su 07 metu 04 UTC
Su prošvaistėmis ne aukštis 800 ft

TAF: FACT 060400Z 0606/0712 19010KT CAVOK TX28/0612Z TN15/0704Z FM061500 18015KT 9999 SCT008 PROB30 TEMPO 0618/0704 BKN008

Orai ataskaitas ir orų prognozės (METAR, TAF).

turimą stotys yra geltonos ir raudonos taškus žemėlapyje.

Perkelti pele per norėdami pamatyti stoties vardą.

Tada spustelėkite, norėdami matyti oro stebėjimo ir prognozės.

Norėdami pakeisti žemėlapį: spustelėkite ant žalios mygtukų su juodo kryžiaus žemyn,; žalią mygtuką su brūkšneliu, jei norite nutolinti; arba žalių rodyklių gretimoms žemėlapius.


METAR-TAF: